sensor_id;sensor_type;location;lat;lon;timestamp;P1;durP1;ratioP1;P2;durP2;ratioP2
10389;SDS011;5241;47.830;12.972;2024-02-21T00:00:50;2.17;;;1.70;;
10389;SDS011;5241;47.830;12.972;2024-02-21T00:03:16;2.57;;;1.70;;
10389;SDS011;5241;47.830;12.972;2024-02-21T00:05:42;2.13;;;1.83;;
10389;SDS011;5241;47.830;12.972;2024-02-21T00:08:07;2.40;;;1.77;;
10389;SDS011;5241;47.830;12.972;2024-02-21T00:10:33;2.20;;;1.40;;
10389;SDS011;5241;47.830;12.972;2024-02-21T00:13:00;1.60;;;1.10;;
10389;SDS011;5241;47.830;12.972;2024-02-21T00:15:25;2.60;;;1.47;;
10389;SDS011;5241;47.830;12.972;2024-02-21T00:17:51;3.00;;;1.97;;
10389;SDS011;5241;47.830;12.972;2024-02-21T00:20:17;1.57;;;1.40;;
10389;SDS011;5241;47.830;12.972;2024-02-21T00:22:43;2.20;;;1.50;;
10389;SDS011;5241;47.830;12.972;2024-02-21T00:25:09;2.57;;;1.40;;
10389;SDS011;5241;47.830;12.972;2024-02-21T00:27:35;2.70;;;1.70;;
10389;SDS011;5241;47.830;12.972;2024-02-21T00:30:00;1.60;;;1.10;;
10389;SDS011;5241;47.830;12.972;2024-02-21T00:32:26;1.40;;;1.30;;
10389;SDS011;5241;47.830;12.972;2024-02-21T00:34:52;1.40;;;1.30;;
10389;SDS011;5241;47.830;12.972;2024-02-21T00:37:17;1.60;;;1.20;;
10389;SDS011;5241;47.830;12.972;2024-02-21T00:39:43;2.20;;;1.00;;
10389;SDS011;5241;47.830;12.972;2024-02-21T00:42:08;2.07;;;1.37;;
10389;SDS011;5241;47.830;12.972;2024-02-21T00:44:34;1.63;;;1.23;;
10389;SDS011;5241;47.830;12.972;2024-02-21T00:46:59;2.43;;;1.27;;
10389;SDS011;5241;47.830;12.972;2024-02-21T00:49:25;1.43;;;1.10;;
10389;SDS011;5241;47.830;12.972;2024-02-21T00:51:50;2.43;;;1.00;;
10389;SDS011;5241;47.830;12.972;2024-02-21T00:54:16;5.77;;;1.53;;
10389;SDS011;5241;47.830;12.972;2024-02-21T00:56:42;3.17;;;1.37;;
10389;SDS011;5241;47.830;12.972;2024-02-21T00:59:08;1.30;;;1.00;;
10389;SDS011;5241;47.830;12.972;2024-02-21T01:01:33;1.13;;;1.03;;
10389;SDS011;5241;47.830;12.972;2024-02-21T01:03:59;1.53;;;1.30;;
10389;SDS011;5241;47.830;12.972;2024-02-21T01:06:25;0.97;;;0.83;;
10389;SDS011;5241;47.830;12.972;2024-02-21T01:08:50;1.47;;;1.10;;
10389;SDS011;5241;47.830;12.972;2024-02-21T01:11:16;0.90;;;0.90;;
10389;SDS011;5241;47.830;12.972;2024-02-21T01:13:42;1.90;;;1.57;;
10389;SDS011;5241;47.830;12.972;2024-02-21T01:16:08;1.00;;;0.70;;
10389;SDS011;5241;47.830;12.972;2024-02-21T01:18:33;1.10;;;1.00;;
10389;SDS011;5241;47.830;12.972;2024-02-21T01:20:59;1.63;;;1.00;;
10389;SDS011;5241;47.830;12.972;2024-02-21T01:23:25;1.70;;;1.10;;
10389;SDS011;5241;47.830;12.972;2024-02-21T01:25:51;2.07;;;1.20;;
10389;SDS011;5241;47.830;12.972;2024-02-21T01:28:17;2.63;;;1.23;;
10389;SDS011;5241;47.830;12.972;2024-02-21T01:30:43;1.37;;;1.20;;
10389;SDS011;5241;47.830;12.972;2024-02-21T01:33:08;2.83;;;1.20;;
10389;SDS011;5241;47.830;12.972;2024-02-21T01:35:34;1.90;;;1.00;;
10389;SDS011;5241;47.830;12.972;2024-02-21T01:38:01;1.23;;;0.97;;
10389;SDS011;5241;47.830;12.972;2024-02-21T01:40:26;1.80;;;1.00;;
10389;SDS011;5241;47.830;12.972;2024-02-21T01:42:53;1.27;;;1.00;;
10389;SDS011;5241;47.830;12.972;2024-02-21T01:45:20;1.13;;;1.03;;
10389;SDS011;5241;47.830;12.972;2024-02-21T01:47:45;1.13;;;0.90;;
10389;SDS011;5241;47.830;12.972;2024-02-21T01:50:12;1.30;;;0.97;;
10389;SDS011;5241;47.830;12.972;2024-02-21T01:52:39;1.10;;;1.00;;
10389;SDS011;5241;47.830;12.972;2024-02-21T01:55:05;1.60;;;1.20;;
10389;SDS011;5241;47.830;12.972;2024-02-21T01:57:32;1.33;;;0.90;;
10389;SDS011;5241;47.830;12.972;2024-02-21T01:59:58;1.00;;;0.90;;
10389;SDS011;5241;47.830;12.972;2024-02-21T02:02:24;1.40;;;1.00;;
10389;SDS011;5241;47.830;12.972;2024-02-21T02:04:49;2.07;;;1.20;;
10389;SDS011;5241;47.830;12.972;2024-02-21T02:07:16;2.37;;;1.70;;
10389;SDS011;5241;47.830;12.972;2024-02-21T02:09:43;3.13;;;1.87;;
10389;SDS011;5241;47.830;12.972;2024-02-21T02:12:08;2.63;;;1.90;;
10389;SDS011;5241;47.830;12.972;2024-02-21T02:14:34;2.77;;;2.20;;
10389;SDS011;5241;47.830;12.972;2024-02-21T02:17:00;1.40;;;1.30;;
10389;SDS011;5241;47.830;12.972;2024-02-21T02:19:25;1.63;;;1.30;;
10389;SDS011;5241;47.830;12.972;2024-02-21T02:21:52;1.13;;;1.03;;
10389;SDS011;5241;47.830;12.972;2024-02-21T02:24:21;2.03;;;1.70;;
10389;SDS011;5241;47.830;12.972;2024-02-21T02:26:50;2.60;;;1.80;;
10389;SDS011;5241;47.830;12.972;2024-02-21T02:29:15;2.27;;;1.70;;
10389;SDS011;5241;47.830;12.972;2024-02-21T02:31:41;3.10;;;1.40;;
10389;SDS011;5241;47.830;12.972;2024-02-21T02:34:07;2.10;;;1.80;;
10389;SDS011;5241;47.830;12.972;2024-02-21T02:36:33;3.40;;;1.80;;
10389;SDS011;5241;47.830;12.972;2024-02-21T02:38:59;2.27;;;1.50;;
10389;SDS011;5241;47.830;12.972;2024-02-21T02:41:24;1.60;;;1.30;;
10389;SDS011;5241;47.830;12.972;2024-02-21T02:43:50;1.50;;;1.40;;
10389;SDS011;5241;47.830;12.972;2024-02-21T02:46:15;1.20;;;1.10;;
10389;SDS011;5241;47.830;12.972;2024-02-21T02:48:41;1.87;;;1.53;;
10389;SDS011;5241;47.830;12.972;2024-02-21T02:51:07;3.20;;;1.80;;
10389;SDS011;5241;47.830;12.972;2024-02-21T02:53:32;1.53;;;1.43;;
10389;SDS011;5241;47.830;12.972;2024-02-21T02:55:58;1.30;;;1.20;;
10389;SDS011;5241;47.830;12.972;2024-02-21T02:58:23;1.67;;;1.37;;
10389;SDS011;5241;47.830;12.972;2024-02-21T03:00:49;1.47;;;0.90;;
10389;SDS011;5241;47.830;12.972;2024-02-21T03:03:14;1.10;;;1.00;;
10389;SDS011;5241;47.830;12.972;2024-02-21T03:05:40;2.40;;;1.10;;
10389;SDS011;5241;47.830;12.972;2024-02-21T03:08:05;1.00;;;0.90;;
10389;SDS011;5241;47.830;12.972;2024-02-21T03:10:34;1.13;;;0.97;;
10389;SDS011;5241;47.830;12.972;2024-02-21T03:13:00;1.23;;;1.10;;
10389;SDS011;5241;47.830;12.972;2024-02-21T03:15:26;3.13;;;1.20;;
10389;SDS011;5241;47.830;12.972;2024-02-21T03:17:51;1.43;;;1.10;;
10389;SDS011;5241;47.830;12.972;2024-02-21T03:20:17;1.57;;;1.10;;
10389;SDS011;5241;47.830;12.972;2024-02-21T03:22:44;2.77;;;0.93;;
10389;SDS011;5241;47.830;12.972;2024-02-21T03:25:10;0.90;;;0.90;;
10389;SDS011;5241;47.830;12.972;2024-02-21T03:27:37;0.90;;;0.90;;
10389;SDS011;5241;47.830;12.972;2024-02-21T03:30:03;2.63;;;1.10;;
10389;SDS011;5241;47.830;12.972;2024-02-21T03:32:29;2.50;;;1.17;;
10389;SDS011;5241;47.830;12.972;2024-02-21T03:34:55;1.23;;;1.10;;
10389;SDS011;5241;47.830;12.972;2024-02-21T03:37:20;1.10;;;0.90;;
10389;SDS011;5241;47.830;12.972;2024-02-21T03:39:46;2.63;;;1.20;;
10389;SDS011;5241;47.830;12.972;2024-02-21T03:42:11;0.70;;;0.70;;
10389;SDS011;5241;47.830;12.972;2024-02-21T03:44:37;1.07;;;0.97;;
10389;SDS011;5241;47.830;12.972;2024-02-21T03:47:03;1.10;;;0.90;;
10389;SDS011;5241;47.830;12.972;2024-02-21T03:49:29;1.10;;;1.00;;
10389;SDS011;5241;47.830;12.972;2024-02-21T03:51:54;4.87;;;1.30;;
10389;SDS011;5241;47.830;12.972;2024-02-21T03:54:20;1.37;;;1.00;;
10389;SDS011;5241;47.830;12.972;2024-02-21T03:56:46;1.73;;;1.40;;
10389;SDS011;5241;47.830;12.972;2024-02-21T03:59:15;2.50;;;1.30;;
10389;SDS011;5241;47.830;12.972;2024-02-21T04:01:40;4.80;;;1.60;;
10389;SDS011;5241;47.830;12.972;2024-02-21T04:04:06;2.63;;;1.70;;
10389;SDS011;5241;47.830;12.972;2024-02-21T04:06:32;2.50;;;1.57;;
10389;SDS011;5241;47.830;12.972;2024-02-21T04:08:58;1.77;;;1.50;;
10389;SDS011;5241;47.830;12.972;2024-02-21T04:11:23;1.97;;;1.40;;
10389;SDS011;5241;47.830;12.972;2024-02-21T04:13:49;2.40;;;1.70;;
10389;SDS011;5241;47.830;12.972;2024-02-21T04:16:16;1.67;;;1.43;;
10389;SDS011;5241;47.830;12.972;2024-02-21T04:18:42;1.70;;;1.40;;
10389;SDS011;5241;47.830;12.972;2024-02-21T04:21:08;3.03;;;1.50;;
10389;SDS011;5241;47.830;12.972;2024-02-21T04:23:34;2.37;;;1.33;;
10389;SDS011;5241;47.830;12.972;2024-02-21T04:26:00;2.03;;;1.50;;
10389;SDS011;5241;47.830;12.972;2024-02-21T04:28:25;1.50;;;1.33;;
10389;SDS011;5241;47.830;12.972;2024-02-21T04:30:51;1.37;;;1.13;;
10389;SDS011;5241;47.830;12.972;2024-02-21T04:33:16;1.23;;;1.00;;
10389;SDS011;5241;47.830;12.972;2024-02-21T04:35:42;1.83;;;1.10;;
10389;SDS011;5241;47.830;12.972;2024-02-21T04:38:07;0.90;;;0.90;;
10389;SDS011;5241;47.830;12.972;2024-02-21T04:40:33;5.67;;;1.10;;
10389;SDS011;5241;47.830;12.972;2024-02-21T04:42:58;1.30;;;0.97;;
10389;SDS011;5241;47.830;12.972;2024-02-21T04:45:24;1.30;;;1.20;;
10389;SDS011;5241;47.830;12.972;2024-02-21T04:47:49;1.40;;;1.27;;
10389;SDS011;5241;47.830;12.972;2024-02-21T04:50:15;0.87;;;0.83;;
10389;SDS011;5241;47.830;12.972;2024-02-21T04:52:41;0.80;;;0.80;;
10389;SDS011;5241;47.830;12.972;2024-02-21T04:55:06;0.90;;;0.80;;
10389;SDS011;5241;47.830;12.972;2024-02-21T04:57:32;1.93;;;1.10;;
10389;SDS011;5241;47.830;12.972;2024-02-21T04:59:58;1.13;;;1.03;;
10389;SDS011;5241;47.830;12.972;2024-02-21T05:02:23;1.23;;;1.13;;
10389;SDS011;5241;47.830;12.972;2024-02-21T05:04:49;1.53;;;1.43;;
10389;SDS011;5241;47.830;12.972;2024-02-21T05:07:15;2.27;;;1.10;;
10389;SDS011;5241;47.830;12.972;2024-02-21T05:09:42;2.13;;;1.20;;
10389;SDS011;5241;47.830;12.972;2024-02-21T05:12:07;1.10;;;1.00;;
10389;SDS011;5241;47.830;12.972;2024-02-21T05:14:33;1.20;;;1.00;;
10389;SDS011;5241;47.830;12.972;2024-02-21T05:16:59;1.80;;;1.20;;
10389;SDS011;5241;47.830;12.972;2024-02-21T05:19:24;1.77;;;1.30;;
10389;SDS011;5241;47.830;12.972;2024-02-21T05:21:50;1.00;;;0.97;;
10389;SDS011;5241;47.830;12.972;2024-02-21T05:24:16;1.67;;;1.20;;
10389;SDS011;5241;47.830;12.972;2024-02-21T05:26:41;1.87;;;1.30;;
10389;SDS011;5241;47.830;12.972;2024-02-21T05:29:07;2.70;;;1.27;;
10389;SDS011;5241;47.830;12.972;2024-02-21T05:34:17;1.40;;;1.30;;
10389;SDS011;5241;47.830;12.972;2024-02-21T05:36:42;1.77;;;1.17;;
10389;SDS011;5241;47.830;12.972;2024-02-21T05:39:09;1.93;;;1.33;;
10389;SDS011;5241;47.830;12.972;2024-02-21T05:41:34;1.90;;;1.20;;
10389;SDS011;5241;47.830;12.972;2024-02-21T05:44:00;2.17;;;1.30;;
10389;SDS011;5241;47.830;12.972;2024-02-21T05:46:25;1.10;;;0.90;;
10389;SDS011;5241;47.830;12.972;2024-02-21T05:48:51;1.40;;;1.03;;
10389;SDS011;5241;47.830;12.972;2024-02-21T05:51:16;1.00;;;1.00;;
10389;SDS011;5241;47.830;12.972;2024-02-21T05:53:42;1.30;;;1.10;;
10389;SDS011;5241;47.830;12.972;2024-02-21T05:56:11;1.03;;;1.00;;
10389;SDS011;5241;47.830;12.972;2024-02-21T05:58:37;1.30;;;1.20;;
10389;SDS011;5241;47.830;12.972;2024-02-21T06:01:03;1.13;;;0.90;;
10389;SDS011;5241;47.830;12.972;2024-02-21T06:03:29;1.17;;;1.07;;
10389;SDS011;5241;47.830;12.972;2024-02-21T06:05:55;2.83;;;1.00;;
10389;SDS011;5241;47.830;12.972;2024-02-21T06:08:20;0.93;;;0.90;;
10389;SDS011;5241;47.830;12.972;2024-02-21T06:10:46;1.43;;;1.00;;
10389;SDS011;5241;47.830;12.972;2024-02-21T06:13:13;2.03;;;1.20;;
10389;SDS011;5241;47.830;12.972;2024-02-21T06:15:39;3.40;;;1.10;;
10389;SDS011;5241;47.830;12.972;2024-02-21T06:18:04;1.43;;;1.10;;
10389;SDS011;5241;47.830;12.972;2024-02-21T06:20:30;3.50;;;0.93;;
10389;SDS011;5241;47.830;12.972;2024-02-21T06:22:56;2.63;;;1.00;;
10389;SDS011;5241;47.830;12.972;2024-02-21T06:25:22;1.67;;;1.30;;
10389;SDS011;5241;47.830;12.972;2024-02-21T06:27:47;1.00;;;0.80;;
10389;SDS011;5241;47.830;12.972;2024-02-21T06:30:13;1.10;;;0.97;;
10389;SDS011;5241;47.830;12.972;2024-02-21T06:32:38;1.17;;;1.07;;
10389;SDS011;5241;47.830;12.972;2024-02-21T06:35:04;2.00;;;1.37;;
10389;SDS011;5241;47.830;12.972;2024-02-21T06:37:30;2.80;;;1.07;;
10389;SDS011;5241;47.830;12.972;2024-02-21T06:39:57;1.10;;;1.00;;
10389;SDS011;5241;47.830;12.972;2024-02-21T06:42:24;1.13;;;1.03;;
10389;SDS011;5241;47.830;12.972;2024-02-21T06:44:50;0.93;;;0.93;;
10389;SDS011;5241;47.830;12.972;2024-02-21T06:47:15;2.87;;;1.43;;
10389;SDS011;5241;47.830;12.972;2024-02-21T06:49:41;2.53;;;1.17;;
10389;SDS011;5241;47.830;12.972;2024-02-21T06:52:07;1.37;;;1.10;;
10389;SDS011;5241;47.830;12.972;2024-02-21T06:54:32;2.77;;;1.90;;
10389;SDS011;5241;47.830;12.972;2024-02-21T06:56:58;2.03;;;1.77;;
10389;SDS011;5241;47.830;12.972;2024-02-21T06:59:23;1.33;;;1.20;;
10389;SDS011;5241;47.830;12.972;2024-02-21T07:01:49;1.50;;;1.20;;
10389;SDS011;5241;47.830;12.972;2024-02-21T07:04:19;3.30;;;1.47;;
10389;SDS011;5241;47.830;12.972;2024-02-21T07:06:45;2.07;;;1.30;;
10389;SDS011;5241;47.830;12.972;2024-02-21T07:09:10;1.40;;;1.30;;
10389;SDS011;5241;47.830;12.972;2024-02-21T07:11:36;1.80;;;1.53;;
10389;SDS011;5241;47.830;12.972;2024-02-21T07:14:02;2.43;;;1.73;;
10389;SDS011;5241;47.830;12.972;2024-02-21T07:16:27;2.27;;;1.50;;
10389;SDS011;5241;47.830;12.972;2024-02-21T07:18:53;2.13;;;1.57;;
10389;SDS011;5241;47.830;12.972;2024-02-21T07:21:20;2.10;;;1.20;;
10389;SDS011;5241;47.830;12.972;2024-02-21T07:23:45;2.67;;;1.40;;
10389;SDS011;5241;47.830;12.972;2024-02-21T07:26:11;1.97;;;1.50;;
10389;SDS011;5241;47.830;12.972;2024-02-21T07:28:36;1.30;;;1.10;;
10389;SDS011;5241;47.830;12.972;2024-02-21T07:31:02;2.10;;;1.60;;
10389;SDS011;5241;47.830;12.972;2024-02-21T07:33:28;5.77;;;1.60;;
10389;SDS011;5241;47.830;12.972;2024-02-21T07:35:55;2.83;;;1.30;;
10389;SDS011;5241;47.830;12.972;2024-02-21T07:38:21;2.00;;;1.47;;
10389;SDS011;5241;47.830;12.972;2024-02-21T07:40:47;3.20;;;1.10;;
10389;SDS011;5241;47.830;12.972;2024-02-21T07:43:13;1.80;;;1.40;;
10389;SDS011;5241;47.830;12.972;2024-02-21T07:45:38;1.50;;;1.30;;
10389;SDS011;5241;47.830;12.972;2024-02-21T07:48:05;6.33;;;1.47;;
10389;SDS011;5241;47.830;12.972;2024-02-21T07:50:31;1.50;;;1.33;;
10389;SDS011;5241;47.830;12.972;2024-02-21T07:52:57;1.13;;;0.90;;
10389;SDS011;5241;47.830;12.972;2024-02-21T07:55:22;2.07;;;1.23;;
10389;SDS011;5241;47.830;12.972;2024-02-21T07:57:48;1.43;;;1.33;;
10389;SDS011;5241;47.830;12.972;2024-02-21T08:00:14;0.90;;;0.90;;
10389;SDS011;5241;47.830;12.972;2024-02-21T08:02:44;1.67;;;1.27;;
10389;SDS011;5241;47.830;12.972;2024-02-21T08:05:10;1.87;;;1.30;;
10389;SDS011;5241;47.830;12.972;2024-02-21T08:07:37;2.63;;;1.43;;
10389;SDS011;5241;47.830;12.972;2024-02-21T08:10:03;1.30;;;1.13;;
10389;SDS011;5241;47.830;12.972;2024-02-21T08:12:29;1.73;;;1.17;;
10389;SDS011;5241;47.830;12.972;2024-02-21T08:14:54;2.33;;;1.60;;
10389;SDS011;5241;47.830;12.972;2024-02-21T08:17:20;1.37;;;1.23;;
10389;SDS011;5241;47.830;12.972;2024-02-21T08:19:46;1.30;;;1.20;;
10389;SDS011;5241;47.830;12.972;2024-02-21T08:22:14;1.30;;;1.20;;
10389;SDS011;5241;47.830;12.972;2024-02-21T08:24:39;2.27;;;1.00;;
10389;SDS011;5241;47.830;12.972;2024-02-21T08:27:05;1.17;;;1.00;;
10389;SDS011;5241;47.830;12.972;2024-02-21T08:29:31;2.50;;;1.23;;
10389;SDS011;5241;47.830;12.972;2024-02-21T08:31:56;2.23;;;1.67;;
10389;SDS011;5241;47.830;12.972;2024-02-21T08:34:22;1.90;;;1.33;;
10389;SDS011;5241;47.830;12.972;2024-02-21T08:36:47;1.73;;;1.13;;
10389;SDS011;5241;47.830;12.972;2024-02-21T08:39:13;4.17;;;1.90;;
10389;SDS011;5241;47.830;12.972;2024-02-21T08:41:41;5.00;;;2.20;;
10389;SDS011;5241;47.830;12.972;2024-02-21T08:44:07;6.17;;;2.00;;
10389;SDS011;5241;47.830;12.972;2024-02-21T08:46:33;2.43;;;1.37;;
10389;SDS011;5241;47.830;12.972;2024-02-21T08:48:58;1.53;;;0.97;;
10389;SDS011;5241;47.830;12.972;2024-02-21T08:51:24;1.90;;;1.07;;
10389;SDS011;5241;47.830;12.972;2024-02-21T08:53:49;0.70;;;0.70;;
10389;SDS011;5241;47.830;12.972;2024-02-21T08:56:15;2.40;;;1.30;;
10389;SDS011;5241;47.830;12.972;2024-02-21T08:58:41;1.10;;;1.00;;
10389;SDS011;5241;47.830;12.972;2024-02-21T09:01:07;1.47;;;1.00;;
10389;SDS011;5241;47.830;12.972;2024-02-21T09:03:36;3.83;;;1.00;;
10389;SDS011;5241;47.830;12.972;2024-02-21T09:06:02;2.03;;;1.60;;
10389;SDS011;5241;47.830;12.972;2024-02-21T09:08:32;2.50;;;0.93;;
10389;SDS011;5241;47.830;12.972;2024-02-21T09:10:58;1.73;;;1.10;;
10389;SDS011;5241;47.830;12.972;2024-02-21T09:13:24;1.83;;;0.90;;
10389;SDS011;5241;47.830;12.972;2024-02-21T09:15:50;2.17;;;1.37;;
10389;SDS011;5241;47.830;12.972;2024-02-21T09:18:15;2.00;;;1.10;;
10389;SDS011;5241;47.830;12.972;2024-02-21T09:20:42;1.37;;;1.20;;
10389;SDS011;5241;47.830;12.972;2024-02-21T09:23:08;1.07;;;0.80;;
10389;SDS011;5241;47.830;12.972;2024-02-21T09:25:33;1.77;;;1.00;;
10389;SDS011;5241;47.830;12.972;2024-02-21T09:28:00;1.17;;;0.80;;
10389;SDS011;5241;47.830;12.972;2024-02-21T09:30:27;1.80;;;0.97;;
10389;SDS011;5241;47.830;12.972;2024-02-21T09:32:52;0.80;;;0.63;;
10389;SDS011;5241;47.830;12.972;2024-02-21T09:35:18;1.13;;;0.73;;
10389;SDS011;5241;47.830;12.972;2024-02-21T09:37:43;2.10;;;1.10;;
10389;SDS011;5241;47.830;12.972;2024-02-21T09:40:09;1.80;;;0.93;;
10389;SDS011;5241;47.830;12.972;2024-02-21T09:42:36;1.00;;;0.80;;
10389;SDS011;5241;47.830;12.972;2024-02-21T09:45:06;0.60;;;0.60;;
10389;SDS011;5241;47.830;12.972;2024-02-21T09:47:35;1.20;;;1.00;;
10389;SDS011;5241;47.830;12.972;2024-02-21T09:50:21;2.60;;;1.13;;
10389;SDS011;5241;47.830;12.972;2024-02-21T09:52:49;1.93;;;1.20;;
10389;SDS011;5241;47.830;12.972;2024-02-21T09:55:16;1.63;;;0.97;;
10389;SDS011;5241;47.830;12.972;2024-02-21T09:57:44;1.27;;;0.87;;
10389;SDS011;5241;47.830;12.972;2024-02-21T10:00:09;1.17;;;1.00;;
10389;SDS011;5241;47.830;12.972;2024-02-21T10:02:35;0.53;;;0.53;;
10389;SDS011;5241;47.830;12.972;2024-02-21T10:05:02;1.37;;;0.73;;
10389;SDS011;5241;47.830;12.972;2024-02-21T10:07:30;2.77;;;0.60;;
10389;SDS011;5241;47.830;12.972;2024-02-21T10:10:03;0.90;;;0.70;;
10389;SDS011;5241;47.830;12.972;2024-02-21T10:12:29;0.80;;;0.70;;
10389;SDS011;5241;47.830;12.972;2024-02-21T10:15:04;1.07;;;0.80;;
10389;SDS011;5241;47.830;12.972;2024-02-21T10:17:34;1.77;;;0.90;;
10389;SDS011;5241;47.830;12.972;2024-02-21T10:20:10;0.73;;;0.70;;
10389;SDS011;5241;47.830;12.972;2024-02-21T10:22:37;1.10;;;0.90;;
10389;SDS011;5241;47.830;12.972;2024-02-21T10:25:08;0.73;;;0.67;;
10389;SDS011;5241;47.830;12.972;2024-02-21T10:27:33;3.13;;;0.93;;
10389;SDS011;5241;47.830;12.972;2024-02-21T10:29:59;0.67;;;0.63;;
10389;SDS011;5241;47.830;12.972;2024-02-21T10:32:24;1.60;;;0.70;;
10389;SDS011;5241;47.830;12.972;2024-02-21T10:35:00;0.70;;;0.70;;
10389;SDS011;5241;47.830;12.972;2024-02-21T10:37:31;0.83;;;0.70;;
10389;SDS011;5241;47.830;12.972;2024-02-21T10:39:57;2.80;;;0.90;;
10389;SDS011;5241;47.830;12.972;2024-02-21T10:42:23;1.90;;;0.83;;
10389;SDS011;5241;47.830;12.972;2024-02-21T10:44:55;1.57;;;0.83;;
10389;SDS011;5241;47.830;12.972;2024-02-21T10:47:26;0.50;;;0.50;;
10389;SDS011;5241;47.830;12.972;2024-02-21T10:50:02;1.43;;;0.67;;
10389;SDS011;5241;47.830;12.972;2024-02-21T10:55:04;2.27;;;0.70;;
10389;SDS011;5241;47.830;12.972;2024-02-21T10:57:34;1.50;;;0.60;;
10389;SDS011;5241;47.830;12.972;2024-02-21T11:00:02;0.77;;;0.70;;
10389;SDS011;5241;47.830;12.972;2024-02-21T11:02:28;1.10;;;0.60;;
10389;SDS011;5241;47.830;12.972;2024-02-21T11:04:56;0.70;;;0.70;;
10389;SDS011;5241;47.830;12.972;2024-02-21T11:07:22;0.97;;;0.67;;
10389;SDS011;5241;47.830;12.972;2024-02-21T11:09:52;0.67;;;0.67;;
10389;SDS011;5241;47.830;12.972;2024-02-21T11:12:20;0.47;;;0.47;;
10389;SDS011;5241;47.830;12.972;2024-02-21T11:14:47;1.77;;;0.80;;
10389;SDS011;5241;47.830;12.972;2024-02-21T11:17:16;1.03;;;0.70;;
10389;SDS011;5241;47.830;12.972;2024-02-21T11:19:42;1.53;;;0.60;;
10389;SDS011;5241;47.830;12.972;2024-02-21T11:22:14;1.40;;;0.80;;
10389;SDS011;5241;47.830;12.972;2024-02-21T11:24:43;0.90;;;0.70;;
10389;SDS011;5241;47.830;12.972;2024-02-21T11:27:12;1.27;;;0.93;;
10389;SDS011;5241;47.830;12.972;2024-02-21T11:29:44;0.60;;;0.60;;
10389;SDS011;5241;47.830;12.972;2024-02-21T11:32:11;0.80;;;0.70;;
10389;SDS011;5241;47.830;12.972;2024-02-21T11:34:40;0.70;;;0.70;;
10389;SDS011;5241;47.830;12.972;2024-02-21T11:37:15;0.60;;;0.60;;
10389;SDS011;5241;47.830;12.972;2024-02-21T11:39:43;1.70;;;0.80;;
10389;SDS011;5241;47.830;12.972;2024-02-21T11:42:09;0.90;;;0.70;;
10389;SDS011;5241;47.830;12.972;2024-02-21T11:44:37;1.10;;;1.00;;
10389;SDS011;5241;47.830;12.972;2024-02-21T11:47:04;1.07;;;0.97;;
10389;SDS011;5241;47.830;12.972;2024-02-21T11:49:35;1.47;;;0.87;;
10389;SDS011;5241;47.830;12.972;2024-02-21T11:52:03;0.70;;;0.70;;
10389;SDS011;5241;47.830;12.972;2024-02-21T11:54:32;0.80;;;0.50;;
10389;SDS011;5241;47.830;12.972;2024-02-21T11:56:58;0.70;;;0.70;;
10389;SDS011;5241;47.830;12.972;2024-02-21T11:59:25;0.70;;;0.70;;
10389;SDS011;5241;47.830;12.972;2024-02-21T12:01:50;1.37;;;0.87;;
10389;SDS011;5241;47.830;12.972;2024-02-21T12:04:17;1.17;;;0.87;;
10389;SDS011;5241;47.830;12.972;2024-02-21T12:06:48;0.70;;;0.67;;
10389;SDS011;5241;47.830;12.972;2024-02-21T12:09:17;0.70;;;0.70;;
10389;SDS011;5241;47.830;12.972;2024-02-21T12:11:43;0.63;;;0.63;;
10389;SDS011;5241;47.830;12.972;2024-02-21T12:14:10;0.97;;;0.70;;
10389;SDS011;5241;47.830;12.972;2024-02-21T12:16:35;1.23;;;0.70;;
10389;SDS011;5241;47.830;12.972;2024-02-21T12:19:04;0.70;;;0.70;;
10389;SDS011;5241;47.830;12.972;2024-02-21T12:21:30;1.57;;;1.10;;
10389;SDS011;5241;47.830;12.972;2024-02-21T12:23:58;1.17;;;0.90;;
10389;SDS011;5241;47.830;12.972;2024-02-21T12:26:24;0.90;;;0.90;;
10389;SDS011;5241;47.830;12.972;2024-02-21T12:28:50;1.17;;;1.00;;
10389;SDS011;5241;47.830;12.972;2024-02-21T12:31:16;0.60;;;0.60;;
10389;SDS011;5241;47.830;12.972;2024-02-21T12:33:44;1.17;;;0.77;;
10389;SDS011;5241;47.830;12.972;2024-02-21T12:36:10;0.40;;;0.40;;
10389;SDS011;5241;47.830;12.972;2024-02-21T12:38:36;1.20;;;0.60;;
10389;SDS011;5241;47.830;12.972;2024-02-21T12:41:01;0.50;;;0.50;;
10389;SDS011;5241;47.830;12.972;2024-02-21T12:43:28;0.70;;;0.50;;
10389;SDS011;5241;47.830;12.972;2024-02-21T12:45:54;1.70;;;0.60;;
10389;SDS011;5241;47.830;12.972;2024-02-21T12:48:19;0.50;;;0.50;;
10389;SDS011;5241;47.830;12.972;2024-02-21T12:50:48;0.97;;;0.70;;
10389;SDS011;5241;47.830;12.972;2024-02-21T12:53:18;0.50;;;0.50;;
10389;SDS011;5241;47.830;12.972;2024-02-21T12:55:46;0.70;;;0.50;;
10389;SDS011;5241;47.830;12.972;2024-02-21T12:58:13;0.50;;;0.50;;
10389;SDS011;5241;47.830;12.972;2024-02-21T13:00:39;0.60;;;0.60;;
10389;SDS011;5241;47.830;12.972;2024-02-21T13:03:05;0.87;;;0.60;;
10389;SDS011;5241;47.830;12.972;2024-02-21T13:05:30;0.77;;;0.60;;
10389;SDS011;5241;47.830;12.972;2024-02-21T13:07:57;1.03;;;0.60;;
10389;SDS011;5241;47.830;12.972;2024-02-21T13:10:23;0.47;;;0.40;;
10389;SDS011;5241;47.830;12.972;2024-02-21T13:12:49;0.53;;;0.53;;
10389;SDS011;5241;47.830;12.972;2024-02-21T13:15:14;0.93;;;0.60;;
10389;SDS011;5241;47.830;12.972;2024-02-21T13:17:42;0.67;;;0.60;;
10389;SDS011;5241;47.830;12.972;2024-02-21T13:20:11;0.77;;;0.70;;
10389;SDS011;5241;47.830;12.972;2024-02-21T13:22:37;0.70;;;0.60;;
10389;SDS011;5241;47.830;12.972;2024-02-21T13:25:03;0.30;;;0.30;;
10389;SDS011;5241;47.830;12.972;2024-02-21T13:27:32;0.40;;;0.40;;
10389;SDS011;5241;47.830;12.972;2024-02-21T13:29:58;0.40;;;0.40;;
10389;SDS011;5241;47.830;12.972;2024-02-21T13:32:23;1.10;;;0.67;;
10389;SDS011;5241;47.830;12.972;2024-02-21T13:34:49;0.60;;;0.50;;
10389;SDS011;5241;47.830;12.972;2024-02-21T13:37:17;0.80;;;0.70;;
10389;SDS011;5241;47.830;12.972;2024-02-21T13:39:43;0.30;;;0.30;;
10389;SDS011;5241;47.830;12.972;2024-02-21T13:42:09;0.90;;;0.50;;
10389;SDS011;5241;47.830;12.972;2024-02-21T13:44:34;0.70;;;0.50;;
10389;SDS011;5241;47.830;12.972;2024-02-21T13:47:01;0.23;;;0.23;;
10389;SDS011;5241;47.830;12.972;2024-02-21T13:49:27;0.40;;;0.40;;
10389;SDS011;5241;47.830;12.972;2024-02-21T13:51:53;0.87;;;0.50;;
10389;SDS011;5241;47.830;12.972;2024-02-21T13:54:19;0.50;;;0.50;;
10389;SDS011;5241;47.830;12.972;2024-02-21T13:56:46;1.00;;;0.77;;
10389;SDS011;5241;47.830;12.972;2024-02-21T13:59:12;0.50;;;0.50;;
10389;SDS011;5241;47.830;12.972;2024-02-21T14:01:41;0.53;;;0.50;;
10389;SDS011;5241;47.830;12.972;2024-02-21T14:04:07;0.50;;;0.40;;
10389;SDS011;5241;47.830;12.972;2024-02-21T14:06:32;0.73;;;0.60;;
10389;SDS011;5241;47.830;12.972;2024-02-21T14:08:58;1.93;;;0.43;;
10389;SDS011;5241;47.830;12.972;2024-02-21T14:11:23;0.40;;;0.40;;
10389;SDS011;5241;47.830;12.972;2024-02-21T14:13:49;0.70;;;0.60;;
10389;SDS011;5241;47.830;12.972;2024-02-21T14:16:14;0.40;;;0.40;;
10389;SDS011;5241;47.830;12.972;2024-02-21T14:18:40;0.67;;;0.50;;
10389;SDS011;5241;47.830;12.972;2024-02-21T14:21:07;1.07;;;0.60;;
10389;SDS011;5241;47.830;12.972;2024-02-21T14:23:35;0.50;;;0.50;;
10389;SDS011;5241;47.830;12.972;2024-02-21T14:26:02;0.47;;;0.47;;
10389;SDS011;5241;47.830;12.972;2024-02-21T14:28:28;0.60;;;0.60;;
10389;SDS011;5241;47.830;12.972;2024-02-21T14:30:54;0.60;;;0.60;;
10389;SDS011;5241;47.830;12.972;2024-02-21T14:33:22;0.63;;;0.53;;
10389;SDS011;5241;47.830;12.972;2024-02-21T14:35:49;0.63;;;0.63;;
10389;SDS011;5241;47.830;12.972;2024-02-21T14:38:14;0.63;;;0.50;;
10389;SDS011;5241;47.830;12.972;2024-02-21T14:40:40;0.63;;;0.63;;
10389;SDS011;5241;47.830;12.972;2024-02-21T14:43:05;0.60;;;0.53;;
10389;SDS011;5241;47.830;12.972;2024-02-21T14:45:31;0.83;;;0.70;;
10389;SDS011;5241;47.830;12.972;2024-02-21T14:47:56;0.57;;;0.53;;